Time;durP1;ratioP1;P1;durP2;ratioP2;P2;SDS_P1;SDS_P2;PMS_P1;PMS_P2;Temp;Humidity;BMP_temperature;BMP_pressure;BME280_temperature;BME280_humidity;BME280_pressure;Samples;Min_cycle;Max_cycle;Signal;HPM_P1;HPM_P2
2023/04/09 00:01:27;;;;;;;48.70;33.97;;;11.70;78.00;;;14.69;53.86;102680.22;5036584;28;20186;-64
2023/04/09 00:03:54;;;;;;;47.17;33.20;;;11.70;78.70;;;14.69;53.46;102672.25;5035810;28;20234;-63
2023/04/09 00:06:21;;;;;;;47.87;33.33;;;11.70;77.80;;;14.70;53.55;102677.41;5035939;28;20261;-62
2023/04/09 00:08:48;;;;;;;54.10;36.00;;;11.70;78.00;;;14.69;53.90;102672.25;5045374;28;20321;-64
2023/04/09 00:11:16;;;;;;;46.97;32.77;;;11.70;77.90;;;14.69;53.67;102678.38;5036066;28;20368;-63
2023/04/09 00:13:43;;;;;;;47.80;33.17;;;11.70;77.90;;;14.69;53.59;102677.56;5034368;28;20528;-63
2023/04/09 00:16:10;;;;;;;51.57;34.30;;;11.70;77.80;;;14.70;53.62;102680.03;5036075;28;20224;-63
2023/04/09 00:18:37;;;;;;;45.87;32.80;;;11.80;77.90;;;14.70;53.67;102677.41;5035755;28;20597;-64
2023/04/09 00:21:05;;;;;;;45.87;31.07;;;11.70;77.80;;;14.69;53.72;102672.25;5035330;28;20210;-63
2023/04/09 00:23:33;;;;;;;49.67;34.03;;;11.80;77.80;;;14.69;53.67;102675.72;5035545;28;20194;-62
2023/04/09 00:26:00;;;;;;;43.90;33.60;;;11.70;77.80;;;14.69;53.85;102677.56;5051066;28;20194;-62
2023/04/09 00:28:28;;;;;;;45.90;31.93;;;11.80;78.00;;;14.68;53.45;102674.06;5035514;28;20229;-63
2023/04/09 00:30:56;;;;;;;44.10;32.47;;;11.70;77.90;;;14.69;53.52;102677.56;5035732;28;20198;-65
2023/04/09 00:33:23;;;;;;;47.60;33.13;;;11.70;77.80;;;14.67;53.86;102675.03;5035308;28;20186;-63
2023/04/09 00:35:50;;;;;;;44.33;32.63;;;11.70;78.10;;;14.68;53.90;102676.72;5036300;28;20214;-64
2023/04/09 00:38:17;;;;;;;44.27;31.37;;;11.70;78.20;;;14.68;53.77;102671.41;5035882;28;20191;-65
2023/04/09 00:40:48;;;;;;;44.87;31.83;;;11.70;78.20;;;14.68;53.78;102671.41;5051115;28;20245;-62
2023/04/09 00:43:15;;;;;;;45.77;33.13;;;11.70;78.10;;;14.67;54.12;102664.44;5036005;28;20186;-63
2023/04/09 00:45:44;;;;;;;42.40;31.80;;;11.70;78.20;;;14.68;53.76;102668.78;5035938;28;20229;-64
2023/04/09 00:48:12;;;;;;;45.20;31.63;;;11.70;78.10;;;14.68;53.72;102666.13;5034599;28;20241;-64
2023/04/09 00:50:40;;;;;;;44.23;31.93;;;11.70;78.00;;;14.67;53.59;102669.75;5035469;28;20215;-64
2023/04/09 00:53:10;;;;;;;44.33;32.20;;;11.70;78.00;;;14.67;53.62;102658.31;5035409;28;20187;-63
2023/04/09 00:55:40;;;;;;;50.67;34.10;;;11.70;78.00;;;14.67;53.82;102668.91;5035125;28;20210;-62
2023/04/09 00:58:07;;;;;;;42.73;30.17;;;11.70;78.10;;;14.65;53.71;102658.47;5035287;28;20741;-62
2023/04/09 01:00:34;;;;;;;42.17;30.27;;;11.70;78.00;;;14.63;53.75;102668.41;5034165;28;20213;-63
2023/04/09 01:03:05;;;;;;;42.97;31.40;;;11.70;77.90;;;14.61;53.72;102662.41;5050532;28;20194;-63
2023/04/09 01:05:43;;;;;;;45.73;30.43;;;11.70;78.00;;;14.57;53.77;102655.75;5035013;28;20249;-63
2023/04/09 01:08:23;;;;;;;43.63;29.83;;;11.70;77.90;;;14.54;53.97;102658.72;5034899;28;20199;-63
2023/04/09 01:11:05;;;;;;;42.73;28.30;;;11.70;77.80;;;14.52;53.63;102654.56;5035221;28;20210;-64
2023/04/09 01:13:46;;;;;;;43.03;30.17;;;11.70;77.80;;;14.49;53.89;102650.38;5033648;28;20282;-62
2023/04/09 01:16:18;;;;;;;41.37;30.43;;;11.60;77.70;;;14.50;53.78;102656.53;5035647;28;20190;-64
2023/04/09 01:18:55;;;;;;;42.63;30.20;;;11.60;77.80;;;14.48;53.97;102659.31;5033991;28;20687;-61
2023/04/09 01:21:30;;;;;;;46.83;30.07;;;11.60;77.90;;;14.49;53.92;102657.50;5050031;28;20565;-61
2023/04/09 01:24:16;;;;;;;40.67;29.87;;;11.60;78.00;;;14.48;54.06;102651.38;5034722;28;20216;-62
2023/04/09 01:26:57;;;;;;;41.20;29.27;;;11.60;78.10;;;14.49;53.89;102655.69;5034639;28;20183;-63
2023/04/09 01:29:32;;;;;;;44.17;29.60;;;11.60;78.20;;;14.50;53.98;102654.69;5035112;28;20272;-64
2023/04/09 01:32:01;;;;;;;45.37;29.13;;;11.60;78.00;;;14.50;53.88;102652.03;5033927;28;20193;-63
2023/04/09 01:34:31;;;;;;;39.33;28.03;;;11.60;78.10;;;14.51;54.02;102653.72;5034813;28;20206;-63
2023/04/09 01:37:02;;;;;;;40.33;28.43;;;11.60;78.00;;;14.53;53.81;102650.91;5034668;28;20283;-63
2023/04/09 01:39:30;;;;;;;38.97;27.13;;;11.60;78.20;;;14.53;53.80;102649.09;5034675;28;20190;-62
2023/04/09 01:41:57;;;;;;;35.40;26.50;;;11.60;77.90;;;14.53;53.54;102651.75;5034714;28;20622;-63
2023/04/09 01:44:28;;;;;;;44.80;29.03;;;11.60;77.90;;;14.53;53.86;102650.91;5033936;28;20214;-61
2023/04/09 01:46:57;;;;;;;38.77;26.33;;;11.60;77.80;;;14.52;53.65;102647.44;5034842;28;20682;-63
2023/04/09 01:49:25;;;;;;;38.37;28.57;;;11.60;77.80;;;14.53;53.68;102645.59;5034783;28;20691;-63
2023/04/09 01:51:52;;;;;;;37.23;27.70;;;11.60;77.80;;;14.53;53.44;102648.25;5015306;28;20195;-66
2023/04/09 01:54:19;;;;;;;39.03;27.30;;;11.60;77.80;;;14.51;53.75;102643.13;5027831;28;20225;-63
2023/04/09 01:56:47;;;;;;;39.80;28.27;;;11.60;77.70;;;14.50;53.88;102646.75;5034543;28;20190;-63
2023/04/09 01:59:15;;;;;;;45.47;28.27;;;11.60;77.80;;;14.50;53.81;102649.38;5034546;28;20252;-64
2023/04/09 02:01:46;;;;;;;36.80;26.37;;;11.60;77.80;;;14.49;53.69;102644.25;5033481;28;20198;-62
2023/04/09 02:04:23;;;;;;;38.60;26.03;;;11.60;77.80;;;14.49;53.34;102649.56;5033731;28;20226;-63
2023/04/09 02:07:01;;;;;;;39.10;26.17;;;11.60;77.80;;;14.48;53.48;102648.72;5034173;28;20178;-63
2023/04/09 02:09:31;;;;;;;36.40;25.23;;;11.60;77.70;;;14.47;53.49;102649.72;5034259;28;20228;-62
2023/04/09 02:12:02;;;;;;;32.63;25.60;;;11.60;77.50;;;14.41;53.43;102645.00;5034243;28;20219;-62
2023/04/09 02:14:31;;;;;;;35.87;25.43;;;11.60;77.30;;;14.37;53.64;102651.59;5033719;28;20245;-62
2023/04/09 02:17:01;;;;;;;35.80;25.93;;;11.60;77.30;;;14.37;53.68;102648.97;5034159;28;20563;-62
2023/04/09 02:19:38;;;;;;;35.50;26.20;;;11.60;77.50;;;14.36;53.97;102644.63;5033378;28;20190;-61
2023/04/09 02:22:05;;;;;;;35.23;25.67;;;11.50;77.40;;;14.39;53.46;102643.50;5033954;28;20183;-62
2023/04/09 02:24:32;;;;;;;34.17;24.30;;;11.60;77.50;;;14.40;53.65;102646.00;5033551;28;20214;-62
2023/04/09 02:26:59;;;;;;;35.70;24.40;;;11.50;77.30;;;14.42;53.59;102644.03;5033584;28;20213;-64
2023/04/09 02:29:26;;;;;;;33.83;23.93;;;11.50;77.30;;;14.44;53.51;102642.06;5033999;28;20214;-63
2023/04/09 02:31:54;;;;;;;34.70;24.73;;;11.50;77.30;;;14.44;53.48;102641.22;5034084;28;20190;-62
2023/04/09 02:34:23;;;;;;;34.00;25.00;;;11.50;77.30;;;14.41;53.13;102639.72;5033405;28;20245;-65
2023/04/09 02:36:49;;;;;;;29.83;23.53;;;11.50;77.00;;;14.35;53.29;102642.97;5034085;28;20191;-64
2023/04/09 02:39:17;;;;;;;30.50;22.17;;;11.50;76.70;;;14.31;53.34;102641.59;5034954;28;20248;-63
2023/04/09 02:41:44;;;;;;;30.90;22.20;;;11.50;76.60;;;14.33;53.19;102636.16;5034151;28;20675;-62
2023/04/09 02:44:11;;;;;;;32.97;23.87;;;11.50;76.70;;;14.32;53.03;102648.56;5044520;28;20665;-63
2023/04/09 02:46:39;;;;;;;33.70;24.03;;;11.50;76.40;;;14.27;53.07;102633.09;5034166;28;20729;-61
2023/04/09 02:49:07;;;;;;;37.47;24.87;;;11.50;76.40;;;14.25;53.17;102637.72;5033660;28;20201;-62
2023/04/09 02:51:35;;;;;;;34.83;23.17;;;11.50;76.20;;;14.24;53.09;102632.56;5032674;28;20276;-62
2023/04/09 02:54:03;;;;;;;34.10;23.87;;;11.50;76.30;;;14.26;53.35;102625.31;5033736;28;20645;-63
2023/04/09 02:56:30;;;;;;;30.87;22.73;;;11.40;76.20;;;14.30;52.82;102623.19;5033729;28;20294;-62
2023/04/09 02:58:57;;;;;;;32.87;22.47;;;11.50;76.30;;;14.29;53.02;102625.00;5033786;28;20195;-63
2023/04/09 03:01:24;;;;;;;31.63;22.00;;;11.50;76.10;;;14.28;52.74;102620.69;5033251;28;20198;-63
2023/04/09 03:03:51;;;;;;;26.47;20.17;;;11.50;75.90;;;14.29;52.64;102629.50;5033160;28;20244;-63
2023/04/09 03:06:18;;;;;;;32.00;23.47;;;11.50;76.00;;;14.32;52.94;102614.13;5048673;28;21016;-62
2023/04/09 03:08:46;;;;;;;32.03;22.03;;;11.50;76.20;;;14.37;53.04;102617.16;5033695;28;20186;-63
2023/04/09 03:11:13;;;;;;;30.23;22.27;;;11.50;76.30;;;14.40;52.74;102624.81;5033370;28;20713;-63
2023/04/09 03:13:40;;;;;;;32.97;22.30;;;11.50;76.30;;;14.42;52.74;102622.00;5048183;28;20655;-62
2023/04/09 03:16:09;;;;;;;31.03;24.13;;;11.50;76.40;;;14.45;52.71;102619.06;5033620;28;20658;-62
2023/04/09 03:18:35;;;;;;;30.57;22.47;;;11.50;76.20;;;14.46;52.52;102616.25;5033594;28;20237;-62
2023/04/09 03:21:05;;;;;;;30.97;22.70;;;11.50;76.20;;;14.47;52.40;102612.63;5048813;28;20544;-62
2023/04/09 03:23:33;;;;;;;28.67;21.60;;;11.50;76.10;;;14.46;52.41;102607.47;5032992;28;20198;-64
2023/04/09 03:26:03;;;;;;;30.33;22.53;;;11.50;76.10;;;14.46;52.56;102613.59;5033567;28;20190;-63
2023/04/09 03:28:30;;;;;;;28.07;20.90;;;11.50;76.00;;;14.44;52.45;102604.97;5034612;28;20194;-63
2023/04/09 03:30:57;;;;;;;28.93;21.37;;;11.50;76.00;;;14.44;52.42;102604.13;5033768;28;20238;-63
2023/04/09 03:33:24;;;;;;;30.00;21.07;;;11.50;75.90;;;14.44;52.31;102604.13;5032707;28;20532;-65
2023/04/09 03:35:51;;;;;;;27.10;20.73;;;11.50;75.80;;;14.40;52.25;102600.97;5033488;28;20305;-64
2023/04/09 03:38:19;;;;;;;28.17;21.37;;;11.50;75.70;;;14.38;52.46;102600.28;5033551;28;20283;-62
2023/04/09 03:40:46;;;;;;;29.07;20.63;;;11.50;75.60;;;14.37;52.54;102603.91;5033437;28;20517;-62
2023/04/09 03:43:14;;;;;;;26.93;21.87;;;11.50;75.70;;;14.35;52.29;102600.59;5033005;28;20201;-64
2023/04/09 03:45:41;;;;;;;25.60;20.07;;;11.50;75.60;;;14.31;52.23;102604.50;5032950;28;20293;-63
2023/04/09 03:48:08;;;;;;;26.73;20.43;;;11.50;75.50;;;14.26;52.41;102606.78;5033152;28;20230;-66
2023/04/09 03:50:39;;;;;;;30.00;20.53;;;11.40;75.30;;;14.22;52.27;102600.09;5033716;28;20694;-63
2023/04/09 03:53:06;;;;;;;28.43;21.40;;;11.40;75.40;;;14.18;52.28;102601.41;5033527;28;20285;-62
2023/04/09 03:55:34;;;;;;;27.27;20.37;;;11.40;75.30;;;14.13;52.43;102585.13;5034419;28;20625;-64
2023/04/09 03:58:00;;;;;;;23.93;19.23;;;11.40;75.40;;;14.08;52.44;102584.75;5036987;28;20186;-64
2023/04/09 04:00:29;;;;;;;30.07;20.03;;;11.30;75.30;;;14.03;52.40;102587.03;5035400;28;20194;-64
2023/04/09 04:02:55;;;;;;;25.53;18.93;;;11.30;75.40;;;13.96;52.62;102588.59;5036166;28;20194;-63
2023/04/09 04:05:26;;;;;;;25.87;19.83;;;11.20;75.60;;;13.92;52.76;102587.25;5036702;28;20245;-62
2023/04/09 04:07:53;;;;;;;24.90;19.13;;;11.20;75.60;;;13.87;52.81;102589.50;5051755;28;20542;-62
2023/04/09 04:10:20;;;;;;;25.63;19.03;;;11.10;75.50;;;13.82;52.82;102594.41;5036782;28;20221;-62
2023/04/09 04:12:47;;;;;;;25.00;18.87;;;11.10;75.70;;;13.80;52.93;102599.03;5036392;28;20198;-64
2023/04/09 04:15:14;;;;;;;24.70;18.97;;;11.10;75.80;;;13.78;53.09;102596.56;5036036;28;20218;-60
2023/04/09 04:17:43;;;;;;;24.67;18.27;;;11.00;75.80;;;13.79;53.03;102592.06;5036437;28;20656;-64
2023/04/09 04:20:10;;;;;;;25.17;17.63;;;11.00;75.80;;;13.79;53.06;102597.34;5035195;28;20195;-64
2023/04/09 04:22:37;;;;;;;28.17;18.77;;;11.00;75.90;;;13.80;52.89;102599.03;5036219;28;20213;-62
2023/04/09 04:25:05;;;;;;;24.10;18.27;;;11.00;76.00;;;13.80;52.89;102594.59;5035866;28;20222;-64
2023/04/09 04:27:32;;;;;;;25.07;18.70;;;11.00;76.10;;;13.81;52.87;102600.72;5036144;28;20203;-64
2023/04/09 04:30:00;;;;;;;23.63;18.60;;;11.00;76.20;;;13.82;52.85;102597.06;5036277;28;20635;-63
2023/04/09 04:32:28;;;;;;;27.80;19.90;;;11.00;76.20;;;13.80;53.05;102599.03;5036193;28;20219;-63
2023/04/09 04:34:56;;;;;;;26.30;19.97;;;10.90;76.10;;;13.78;52.96;102601.00;5035796;28;20210;-63
2023/04/09 04:37:23;;;;;;;23.30;18.23;;;10.90;76.10;;;13.77;52.98;102607.28;5035878;28;20656;-65
2023/04/09 04:39:50;;;;;;;26.00;19.03;;;10.90;76.20;;;13.76;53.13;102608.28;5036149;28;20698;-62
2023/04/09 04:42:17;;;;;;;25.03;18.77;;;10.90;76.40;;;13.75;53.13;102614.53;5036115;28;20191;-63
2023/04/09 04:44:44;;;;;;;26.60;19.37;;;10.90;76.40;;;13.74;53.09;102610.25;5050572;28;20203;-63
2023/04/09 04:47:11;;;;;;;25.23;18.80;;;10.90;76.30;;;13.72;53.25;102615.66;5036203;28;20681;-64
2023/04/09 04:49:38;;;;;;;26.90;18.83;;;10.90;76.40;;;13.69;53.28;102617.78;5035675;28;20197;-64
2023/04/09 04:52:06;;;;;;;29.10;20.80;;;10.90;76.30;;;13.61;53.27;102617.69;5036163;28;20194;-63
2023/04/09 04:54:33;;;;;;;37.13;22.37;;;10.90;76.20;;;13.52;53.62;102622.06;5035391;28;20215;-63
2023/04/09 04:57:00;;;;;;;23.50;18.80;;;10.80;75.90;;;13.41;53.46;102617.78;5036034;28;20672;-62
2023/04/09 04:59:27;;;;;;;29.97;21.23;;;10.80;75.80;;;13.39;53.75;102621.53;5035749;28;20191;-62
2023/04/09 05:01:54;;;;;;;27.97;20.83;;;10.80;76.10;;;13.39;53.63;102625.03;5051280;28;20217;-64
2023/04/09 05:04:22;;;;;;;24.13;17.50;;;10.80;76.30;;;13.39;53.65;102625.03;5035707;28;20297;-63
2023/04/09 05:06:49;;;;;;;27.63;19.70;;;10.80;76.20;;;13.40;53.83;102624.06;5035247;28;20195;-63
2023/04/09 05:09:17;;;;;;;30.80;20.60;;;10.70;76.20;;;13.42;53.53;102614.16;5035741;28;20190;-61
2023/04/09 05:11:47;;;;;;;24.33;18.87;;;10.70;76.30;;;13.44;53.47;102619.31;5035987;28;20218;-62
2023/04/09 05:14:14;;;;;;;27.20;20.00;;;10.70;76.20;;;13.44;53.72;102620.13;5034467;28;20697;-63
2023/04/09 05:16:41;;;;;;;26.70;18.63;;;10.70;76.30;;;13.44;53.51;102630.72;5036190;28;20202;-62
2023/04/09 05:19:08;;;;;;;29.97;20.73;;;10.70;76.50;;;13.43;53.92;102629.03;5035730;28;20255;-62
2023/04/09 05:21:35;;;;;;;25.07;19.27;;;10.70;76.80;;;13.41;54.08;102631.00;5035391;28;20195;-65
2023/04/09 05:24:02;;;;;;;28.43;18.87;;;10.70;76.90;;;13.41;53.97;102630.16;5034644;28;20217;-62
2023/04/09 05:26:30;;;;;;;25.63;19.23;;;10.70;76.90;;;13.43;54.02;102629.03;5035049;28;20199;-63
2023/04/09 05:28:57;;;;;;;25.53;18.10;;;10.70;77.10;;;13.45;54.08;102632.38;5035687;28;20282;-62
2023/04/09 05:31:24;;;;;;;25.37;19.70;;;10.80;77.20;;;13.45;54.07;102637.66;5036317;28;20218;-62
2023/04/09 05:33:51;;;;;;;29.40;19.70;;;10.70;77.20;;;13.43;54.29;102633.53;5037015;28;20225;-62
2023/04/09 05:36:18;;;;;;;24.57;18.33;;;10.70;77.00;;;13.45;54.26;102635.00;5036936;28;20191;-63
2023/04/09 05:38:46;;;;;;;25.00;18.57;;;10.80;77.20;;;13.49;54.15;102633.75;5050485;28;20195;-63
2023/04/09 05:41:14;;;;;;;28.07;19.70;;;10.70;77.20;;;13.49;54.17;102633.75;5034933;28;20187;-63
2023/04/09 05:43:43;;;;;;;28.60;20.47;;;10.80;77.30;;;13.46;54.31;102634.03;5034596;28;20202;-63
2023/04/09 05:46:10;;;;;;;27.73;20.47;;;10.80;77.20;;;13.41;54.40;102631.00;5034656;28;20209;-62
2023/04/09 05:48:37;;;;;;;26.97;18.67;;;10.80;77.00;;;13.37;54.41;102640.22;5046435;28;20246;-62
2023/04/09 05:51:04;;;;;;;24.83;19.27;;;10.70;76.90;;;13.30;54.68;102638.28;5028159;28;20214;-62
2023/04/09 05:53:31;;;;;;;28.17;19.67;;;10.70;77.00;;;13.25;54.39;102636.09;5034305;28;20186;-62
2023/04/09 05:55:58;;;;;;;24.83;18.33;;;10.70;77.10;;;13.22;54.76;102625.78;5033161;28;20563;-62
2023/04/09 05:58:27;;;;;;;25.87;17.30;;;10.70;77.10;;;13.26;54.60;102639.56;5034374;28;20289;-63
2023/04/09 06:00:55;;;;;;;24.57;17.90;;;10.60;77.30;;;13.33;54.75;102638.84;5033856;28;20198;-64
2023/04/09 06:03:22;;;;;;;22.33;18.17;;;10.60;77.80;;;13.40;54.66;102639.09;5034118;28;20194;-62
2023/04/09 06:05:49;;;;;;;24.57;17.97;;;10.70;78.50;;;13.45;54.27;102634.19;5034093;28;20218;-63
2023/04/09 06:08:16;;;;;;;23.07;18.00;;;10.70;77.50;;;13.45;54.51;102637.66;5034014;28;21035;-63
2023/04/09 06:10:43;;;;;;;29.77;19.63;;;10.70;77.50;;;13.51;54.24;102626.50;5034076;28;20214;-63
2023/04/09 06:13:10;;;;;;;26.27;18.67;;;10.70;77.50;;;13.53;54.14;102632.47;5034293;28;20198;-62
2023/04/09 06:15:38;;;;;;;27.27;19.63;;;10.80;77.40;;;13.55;54.06;102635.81;5033369;28;20218;-60
2023/04/09 06:18:06;;;;;;;29.37;20.97;;;10.80;77.20;;;13.56;53.87;102634.84;5033808;28;20248;-61
2023/04/09 06:20:33;;;;;;;25.87;19.57;;;10.90;77.00;;;13.56;54.06;102637.50;5034267;28;20182;-62
2023/04/09 06:23:00;;;;;;;25.60;18.87;;;10.90;76.80;;;13.58;53.94;102638.16;5034348;28;20195;-62
2023/04/09 06:25:27;;;;;;;25.93;19.67;;;10.90;76.70;;;13.63;53.81;102634.25;5033343;28;20214;-62
2023/04/09 06:27:54;;;;;;;27.23;18.90;;;10.90;76.80;;;13.70;53.69;102637.97;5032877;28;20210;-61
2023/04/09 06:30:21;;;;;;;24.70;18.93;;;10.90;76.80;;;13.74;53.63;102644.63;5033735;28;20651;-63
2023/04/09 06:32:49;;;;;;;28.27;21.53;;;11.00;76.60;;;13.72;53.18;102646.56;5033659;28;20277;-64
2023/04/09 06:35:22;;;;;;;26.63;19.83;;;11.00;76.10;;;13.67;53.32;102646.22;5033806;28;20222;-61
2023/04/09 06:37:49;;;;;;;27.83;18.80;;;11.00;76.00;;;13.71;53.29;102642.28;5034203;28;20312;-62
2023/04/09 06:40:16;;;;;;;24.63;19.27;;;11.00;76.10;;;13.77;53.27;102646.97;5034051;28;20282;-62
2023/04/09 06:42:44;;;;;;;27.47;19.80;;;11.10;76.10;;;13.83;52.97;102651.69;5034110;28;20333;-64
2023/04/09 06:45:11;;;;;;;23.13;17.97;;;11.10;75.90;;;13.91;52.80;102649.09;5043982;28;20223;-63
2023/04/09 06:47:38;;;;;;;22.87;18.67;;;11.10;75.70;;;13.98;52.34;102650.19;5033947;28;20214;-62
2023/04/09 06:50:07;;;;;;;24.83;17.77;;;11.20;75.20;;;14.06;52.05;102652.91;5033746;28;20194;-63
2023/04/09 06:52:35;;;;;;;23.90;18.90;;;11.20;74.60;;;13.99;51.31;102651.84;5033937;28;20218;-63
2023/04/09 06:55:02;;;;;;;24.40;18.47;;;11.30;73.40;;;13.90;51.17;102647.47;5033512;28;20221;-63
2023/04/09 06:57:30;;;;;;;20.60;17.27;;;11.30;73.10;;;13.77;51.23;102646.97;5048876;28;20202;-63
2023/04/09 06:59:56;;;;;;;25.70;17.70;;;11.30;72.60;;;13.81;51.51;102651.00;5032216;28;20199;-62
2023/04/09 07:02:23;;;;;;;24.57;17.10;;;11.30;72.90;;;13.85;51.58;102655.00;5033974;28;20197;-62
2023/04/09 07:04:51;;;;;;;23.30;18.53;;;11.30;72.90;;;13.85;51.45;102650.56;5032998;28;20218;-64
2023/04/09 07:07:19;;;;;;;24.17;18.63;;;11.30;73.60;;;13.90;51.32;102655.41;5033586;28;20203;-62
2023/04/09 07:09:48;;;;;;;25.20;18.03;;;11.30;72.50;;;13.85;50.91;102657.66;5033872;28;20190;-62
2023/04/09 07:12:25;;;;;;;23.47;19.27;;;11.30;71.90;;;13.83;50.97;102662.28;5033917;28;20225;-63
2023/04/09 07:14:52;;;;;;;21.87;16.80;;;11.30;71.90;;;13.91;51.09;102662.34;5033536;28;20570;-61
2023/04/09 07:17:19;;;;;;;21.97;16.30;;;11.40;72.20;;;14.19;50.50;102661.34;5034221;28;20206;-63
2023/04/09 07:19:46;;;;;;;20.77;17.13;;;11.50;72.10;;;14.50;49.36;102665.28;5033389;28;20191;-63
2023/04/09 07:22:13;;;;;;;19.13;15.97;;;11.60;71.20;;;14.84;48.62;102668.88;5032739;28;20199;-61
2023/04/09 07:24:40;;;;;;;21.87;17.10;;;11.80;70.40;;;15.12;47.87;102660.78;5033022;28;20221;-62
2023/04/09 07:27:09;;;;;;;19.33;16.27;;;12.10;69.50;;;15.52;47.94;102672.47;5033582;28;20191;-61
2023/04/09 07:29:36;;;;;;;19.57;16.27;;;12.40;70.10;;;15.97;47.07;102661.53;5034135;28;20195;-62
2023/04/09 07:32:03;;;;;;;19.50;17.20;;;12.70;69.30;;;16.55;45.86;102668.59;5037362;28;20225;-61
2023/04/09 07:34:30;;;;;;;20.80;16.47;;;13.00;67.90;;;17.22;44.78;102665.53;5037853;28;20215;-63
2023/04/09 07:36:57;;;;;;;17.47;15.47;;;13.50;67.50;;;17.82;42.62;102668.50;5052892;28;20201;-62
2023/04/09 07:39:24;;;;;;;21.70;16.60;;;13.90;64.30;;;18.41;40.92;102668.75;5037010;28;20285;-62
2023/04/09 07:41:51;;;;;;;19.93;16.03;;;14.40;62.20;;;18.99;40.33;102660.97;5037040;28;20214;-62
2023/04/09 07:44:20;;;;;;;19.33;16.23;;;14.90;61.90;;;19.46;38.77;102657.94;5036896;28;20694;-62
2023/04/09 07:46:46;;;;;;;19.93;15.67;;;15.30;59.20;;;20.04;38.33;102663.16;5035392;28;20198;-64
2023/04/09 07:49:13;;;;;;;18.63;16.30;;;15.70;59.40;;;20.48;36.65;102667.53;5036151;28;20206;-63
2023/04/09 07:51:40;;;;;;;16.90;15.20;;;16.20;57.00;;;20.54;36.06;102661.44;5036746;28;20686;-62
2023/04/09 07:54:07;;;;;;;18.53;15.83;;;16.50;55.50;;;20.87;36.07;102673.25;5037023;28;20229;-63
2023/04/09 07:56:34;;;;;;;18.63;16.83;;;16.80;55.20;;;21.34;34.68;102665.34;5036502;28;20205;-62
2023/04/09 07:59:02;;;;;;;17.17;15.37;;;17.10;53.80;;;21.85;35.03;102662.25;5036528;28;20198;-62
2023/04/09 08:01:30;;;;;;;17.63;14.43;;;17.60;54.40;;;22.59;34.90;102658.47;5036474;28;20183;-63
2023/04/09 08:03:57;;;;;;;17.57;15.67;;;18.00;55.20;;;23.17;32.86;102664.03;5036409;28;20213;-63
2023/04/09 08:06:25;;;;;;;16.27;14.63;;;18.30;52.30;;;23.74;32.20;102664.06;5036611;28;20194;-65
2023/04/09 08:08:52;;;;;;;16.20;14.57;;;18.80;52.00;;;24.42;31.06;102664.28;5036745;28;20191;-62
2023/04/09 08:11:24;;;;;;;16.60;14.97;;;19.20;50.70;;;24.59;29.04;102658.13;5034940;28;20301;-63
2023/04/09 08:13:51;;;;;;;15.67;14.07;;;19.50;47.40;;;24.61;29.32;102663.28;5035892;28;20219;-64
2023/04/09 08:16:18;;;;;;;15.67;14.10;;;19.70;46.80;;;24.94;29.21;102663.84;5036424;28;20248;-63
2023/04/09 08:18:46;;;;;;;15.90;14.23;;;20.00;45.90;;;25.31;29.19;102653.91;5036372;28;20290;-63
2023/04/09 08:21:13;;;;;;;16.87;15.27;;;20.30;46.00;;;25.72;28.19;102655.94;5036422;28;20198;-63
2023/04/09 08:23:40;;;;;;;17.20;15.00;;;20.60;44.20;;;25.98;28.05;102647.47;5051339;28;20206;-65
2023/04/09 08:26:07;;;;;;;14.93;13.40;;;20.80;44.00;;;26.27;27.99;102653.94;5036227;28;20190;-63
2023/04/09 08:28:34;;;;;;;16.90;14.67;;;21.10;44.40;;;26.81;26.59;102662.56;5036217;28;20698;-61
2023/04/09 08:31:01;;;;;;;16.47;14.70;;;21.40;42.40;;;26.94;25.81;102655.28;5037004;28;20664;-66
2023/04/09 08:33:29;;;;;;;14.97;12.93;;;21.60;41.30;;;27.38;26.38;102657.38;5035763;28;20198;-63
2023/04/09 08:35:57;;;;;;;16.90;15.10;;;21.90;42.60;;;27.61;25.15;102662.72;5036358;28;20191;-64
2023/04/09 08:38:24;;;;;;;15.00;13.50;;;22.10;39.60;;;27.64;25.19;102662.25;5036425;28;20670;-62
2023/04/09 08:40:51;;;;;;;16.17;14.60;;;22.30;39.20;;;27.69;24.73;102659.63;5035577;28;20203;-65
2023/04/09 08:43:21;;;;;;;14.37;13.00;;;22.40;38.20;;;27.65;24.66;102658.44;5034750;28;20187;-61
2023/04/09 08:45:52;;;;;;;17.00;15.27;;;22.60;38.00;;;27.69;24.09;102648.81;5035579;28;20217;-63
2023/04/09 08:48:20;;;;;;;16.20;14.60;;;22.60;36.70;;;27.96;24.55;102651.72;5036304;28;20186;-64
2023/04/09 08:50:47;;;;;;;15.43;13.93;;;22.90;37.80;;;28.23;24.05;102660.09;5035904;28;20566;-63
2023/04/09 08:53:18;;;;;;;15.80;14.17;;;23.00;37.20;;;28.46;24.24;102658.06;5035566;28;20301;-64
2023/04/09 08:55:45;;;;;;;16.63;15.13;;;23.20;37.30;;;28.86;23.45;102666.00;5036186;28;20215;-63
2023/04/09 08:58:12;;;;;;;16.67;14.83;;;23.30;36.40;;;29.15;23.04;102658.53;5050782;28;20195;-63
2023/04/09 09:00:39;;;;;;;14.20;12.80;;;23.50;36.00;;;29.48;23.15;102655.75;5050728;28;20203;-62
2023/04/09 09:03:08;;;;;;;16.80;15.20;;;23.80;36.50;;;29.03;22.84;102658.66;5034884;28;20651;-63
2023/04/09 09:05:38;;;;;;;15.87;14.23;;;23.80;34.70;;;27.82;24.09;102653.09;5034614;28;20302;-62
2023/04/09 09:08:08;;;;;;;15.43;14.03;;;23.60;35.00;;;26.89;24.81;102656.00;5034540;28;20209;-64
2023/04/09 09:10:43;;;;;;;15.90;14.13;;;23.20;35.50;;;26.75;25.62;102647.31;5034460;28;20183;-63
2023/04/09 09:13:17;;;;;;;16.50;14.70;;;22.80;36.30;;;27.15;24.60;102660.06;5035085;28;20586;-62
2023/04/09 09:15:46;;;;;;;17.47;15.67;;;22.50;36.70;;;26.57;25.73;102650.09;5034378;28;20435;-62
2023/04/09 09:18:13;;;;;;;16.93;15.13;;;22.30;36.90;;;26.54;25.62;102639.75;5035203;28;20195;-63
2023/04/09 09:20:40;;;;;;;16.27;14.63;;;22.20;37.70;;;27.20;25.44;102647.50;5034533;28;20194;-64
2023/04/09 09:23:07;;;;;;;17.27;15.47;;;22.20;37.90;;;27.26;24.67;102643.84;5033983;28;20248;-62
2023/04/09 09:25:38;;;;;;;16.73;15.13;;;22.10;37.30;;;27.58;25.40;102643.41;5034779;28;20217;-63
2023/04/09 09:28:11;;;;;;;15.90;14.20;;;22.40;38.30;;;28.09;24.38;102637.94;5033769;28;20206;-64
2023/04/09 09:30:39;;;;;;;17.17;15.37;;;22.60;37.60;;;28.61;23.25;102643.94;5033783;28;20201;-63
2023/04/09 09:33:09;;;;;;;15.97;14.40;;;22.80;37.00;;;28.73;23.57;102639.25;5034637;28;20206;-64
2023/04/09 09:35:51;;;;;;;15.43;13.93;;;23.00;36.70;;;29.24;23.47;102641.59;5034310;28;20216;-63
2023/04/09 09:38:19;;;;;;;16.00;14.40;;;23.50;36.60;;;29.37;23.20;102646.69;5034620;28;20202;-63
2023/04/09 09:40:46;;;;;;;15.20;13.80;;;23.70;36.00;;;28.82;22.59;102643.19;5034622;28;20206;-64
2023/04/09 09:43:15;;;;;;;15.70;14.20;;;23.70;34.90;;;28.15;23.92;102636.94;5034563;28;20194;-63
2023/04/09 09:45:45;;;;;;;16.30;14.70;;;23.60;35.40;;;28.72;23.67;102632.19;5034880;28;20325;-62
2023/04/09 09:48:14;;;;;;;15.40;13.90;;;23.60;35.70;;;29.37;22.47;102633.09;5034347;28;20236;-64
2023/04/09 09:50:44;;;;;;;16.17;14.57;;;23.70;35.10;;;29.73;22.18;102636.22;5024634;28;20203;-63
2023/04/09 09:53:16;;;;;;;15.23;13.63;;;23.90;34.70;;;30.34;21.64;102635.75;5014337;28;20211;-65
2023/04/09 09:55:48;;;;;;;16.27;14.17;;;24.20;35.00;;;31.05;20.90;102630.78;5033979;28;20225;-63
2023/04/09 09:58:28;;;;;;;14.57;13.07;;;24.60;34.30;;;31.41;20.67;102622.50;5034693;28;20215;-63
2023/04/09 10:00:57;;;;;;;16.03;14.53;;;24.90;33.20;;;31.93;19.94;102625.06;5034537;28;20178;-64
2023/04/09 10:03:29;;;;;;;17.03;15.33;;;25.30;32.80;;;31.76;19.63;102631.88;5033667;28;20568;-65
2023/04/09 10:05:59;;;;;;;15.57;14.07;;;25.40;31.70;;;31.72;20.06;102619.84;5034430;28;20179;-64